sensor_id;sensor_type;location;lat;lon;timestamp;P1;durP1;ratioP1;P2;durP2;ratioP2
58360;SDS011;44164;44.954;10.068;2023-04-27T00:00:49;0.95;;;0.57;;
58360;SDS011;44164;44.954;10.068;2023-04-27T00:03:15;1.58;;;0.60;;
58360;SDS011;44164;44.954;10.068;2023-04-27T00:05:42;0.95;;;0.60;;
58360;SDS011;44164;44.954;10.068;2023-04-27T00:08:08;1.58;;;0.98;;
58360;SDS011;44164;44.954;10.068;2023-04-27T00:10:34;2.20;;;0.90;;
58360;SDS011;44164;44.954;10.068;2023-04-27T00:13:01;1.60;;;0.70;;
58360;SDS011;44164;44.954;10.068;2023-04-27T00:15:27;1.77;;;1.13;;
58360;SDS011;44164;44.954;10.068;2023-04-27T00:17:53;1.70;;;0.80;;
58360;SDS011;44164;44.954;10.068;2023-04-27T00:20:19;1.52;;;0.80;;
58360;SDS011;44164;44.954;10.068;2023-04-27T00:22:46;1.33;;;0.75;;
58360;SDS011;44164;44.954;10.068;2023-04-27T00:25:12;2.53;;;1.05;;
58360;SDS011;44164;44.954;10.068;2023-04-27T00:27:38;1.25;;;0.65;;
58360;SDS011;44164;44.954;10.068;2023-04-27T00:30:04;0.70;;;0.50;;
58360;SDS011;44164;44.954;10.068;2023-04-27T00:32:32;1.33;;;0.70;;
58360;SDS011;44164;44.954;10.068;2023-04-27T00:34:58;2.65;;;0.73;;
58360;SDS011;44164;44.954;10.068;2023-04-27T00:37:24;1.48;;;0.60;;
58360;SDS011;44164;44.954;10.068;2023-04-27T00:39:50;3.88;;;0.90;;
58360;SDS011;44164;44.954;10.068;2023-04-27T00:42:16;1.20;;;0.60;;
58360;SDS011;44164;44.954;10.068;2023-04-27T00:44:45;1.00;;;0.60;;
58360;SDS011;44164;44.954;10.068;2023-04-27T00:47:11;1.35;;;0.73;;
58360;SDS011;44164;44.954;10.068;2023-04-27T00:49:38;1.70;;;0.80;;
58360;SDS011;44164;44.954;10.068;2023-04-27T00:52:04;1.25;;;0.70;;
58360;SDS011;44164;44.954;10.068;2023-04-27T00:54:31;1.73;;;0.85;;
58360;SDS011;44164;44.954;10.068;2023-04-27T00:56:57;1.40;;;0.70;;
58360;SDS011;44164;44.954;10.068;2023-04-27T00:59:24;2.10;;;0.85;;
58360;SDS011;44164;44.954;10.068;2023-04-27T01:01:51;1.60;;;1.00;;
58360;SDS011;44164;44.954;10.068;2023-04-27T01:04:18;1.30;;;0.60;;
58360;SDS011;44164;44.954;10.068;2023-04-27T01:06:44;1.30;;;0.68;;
58360;SDS011;44164;44.954;10.068;2023-04-27T01:09:10;1.42;;;0.57;;
58360;SDS011;44164;44.954;10.068;2023-04-27T01:11:37;1.92;;;1.00;;
58360;SDS011;44164;44.954;10.068;2023-04-27T01:14:05;1.95;;;0.90;;
58360;SDS011;44164;44.954;10.068;2023-04-27T01:16:32;2.03;;;0.93;;
58360;SDS011;44164;44.954;10.068;2023-04-27T01:18:58;1.10;;;0.60;;
58360;SDS011;44164;44.954;10.068;2023-04-27T01:21:24;2.03;;;0.90;;
58360;SDS011;44164;44.954;10.068;2023-04-27T01:23:51;1.00;;;0.70;;
58360;SDS011;44164;44.954;10.068;2023-04-27T01:26:19;1.45;;;0.75;;
58360;SDS011;44164;44.954;10.068;2023-04-27T01:28:45;1.60;;;0.80;;
58360;SDS011;44164;44.954;10.068;2023-04-27T01:31:11;1.95;;;0.90;;
58360;SDS011;44164;44.954;10.068;2023-04-27T01:33:38;1.17;;;0.70;;
58360;SDS011;44164;44.954;10.068;2023-04-27T01:36:05;1.45;;;0.60;;
58360;SDS011;44164;44.954;10.068;2023-04-27T01:38:32;1.30;;;0.60;;
58360;SDS011;44164;44.954;10.068;2023-04-27T01:40:59;2.00;;;1.00;;
58360;SDS011;44164;44.954;10.068;2023-04-27T01:43:27;1.83;;;0.88;;
58360;SDS011;44164;44.954;10.068;2023-04-27T01:46:06;1.35;;;0.77;;
58360;SDS011;44164;44.954;10.068;2023-04-27T01:48:36;1.65;;;0.60;;
58360;SDS011;44164;44.954;10.068;2023-04-27T01:51:03;1.42;;;0.80;;
58360;SDS011;44164;44.954;10.068;2023-04-27T01:53:29;1.63;;;0.77;;
58360;SDS011;44164;44.954;10.068;2023-04-27T01:55:56;1.10;;;0.60;;
58360;SDS011;44164;44.954;10.068;2023-04-27T01:58:23;1.98;;;0.70;;
58360;SDS011;44164;44.954;10.068;2023-04-27T02:00:50;1.30;;;0.60;;
58360;SDS011;44164;44.954;10.068;2023-04-27T02:03:16;1.33;;;0.70;;
58360;SDS011;44164;44.954;10.068;2023-04-27T02:05:42;1.45;;;0.75;;
58360;SDS011;44164;44.954;10.068;2023-04-27T02:08:08;1.45;;;0.80;;
58360;SDS011;44164;44.954;10.068;2023-04-27T02:10:35;1.70;;;0.85;;
58360;SDS011;44164;44.954;10.068;2023-04-27T02:13:01;1.50;;;0.80;;
58360;SDS011;44164;44.954;10.068;2023-04-27T02:15:27;1.70;;;0.90;;
58360;SDS011;44164;44.954;10.068;2023-04-27T02:17:53;1.77;;;0.77;;
58360;SDS011;44164;44.954;10.068;2023-04-27T02:20:20;2.50;;;0.90;;
58360;SDS011;44164;44.954;10.068;2023-04-27T02:22:46;1.20;;;0.70;;
58360;SDS011;44164;44.954;10.068;2023-04-27T02:25:13;4.00;;;0.80;;
58360;SDS011;44164;44.954;10.068;2023-04-27T02:27:41;1.63;;;0.85;;
58360;SDS011;44164;44.954;10.068;2023-04-27T02:30:08;1.40;;;0.73;;
58360;SDS011;44164;44.954;10.068;2023-04-27T02:32:35;1.98;;;0.93;;
58360;SDS011;44164;44.954;10.068;2023-04-27T02:35:02;1.40;;;0.57;;
58360;SDS011;44164;44.954;10.068;2023-04-27T02:37:29;2.05;;;0.82;;
58360;SDS011;44164;44.954;10.068;2023-04-27T02:39:55;0.98;;;0.57;;
58360;SDS011;44164;44.954;10.068;2023-04-27T02:42:22;2.22;;;0.88;;
58360;SDS011;44164;44.954;10.068;2023-04-27T02:44:48;1.58;;;0.93;;
58360;SDS011;44164;44.954;10.068;2023-04-27T02:47:14;2.65;;;0.90;;
58360;SDS011;44164;44.954;10.068;2023-04-27T02:49:41;1.90;;;0.80;;
58360;SDS011;44164;44.954;10.068;2023-04-27T02:52:08;2.60;;;0.88;;
58360;SDS011;44164;44.954;10.068;2023-04-27T02:54:34;1.65;;;1.00;;
58360;SDS011;44164;44.954;10.068;2023-04-27T02:57:00;1.83;;;0.90;;
58360;SDS011;44164;44.954;10.068;2023-04-27T02:59:27;2.45;;;0.70;;
58360;SDS011;44164;44.954;10.068;2023-04-27T03:01:53;2.22;;;0.88;;
58360;SDS011;44164;44.954;10.068;2023-04-27T03:04:19;2.17;;;0.80;;
58360;SDS011;44164;44.954;10.068;2023-04-27T03:06:45;1.38;;;0.70;;
58360;SDS011;44164;44.954;10.068;2023-04-27T03:09:11;2.53;;;0.95;;
58360;SDS011;44164;44.954;10.068;2023-04-27T03:11:37;2.60;;;1.00;;
58360;SDS011;44164;44.954;10.068;2023-04-27T03:14:04;1.48;;;0.88;;
58360;SDS011;44164;44.954;10.068;2023-04-27T03:16:31;1.58;;;0.77;;
58360;SDS011;44164;44.954;10.068;2023-04-27T03:18:57;1.38;;;0.93;;
58360;SDS011;44164;44.954;10.068;2023-04-27T03:21:23;1.73;;;0.80;;
58360;SDS011;44164;44.954;10.068;2023-04-27T03:23:50;2.65;;;0.85;;
58360;SDS011;44164;44.954;10.068;2023-04-27T03:26:16;1.55;;;0.85;;
58360;SDS011;44164;44.954;10.068;2023-04-27T03:28:42;2.72;;;0.80;;
58360;SDS011;44164;44.954;10.068;2023-04-27T03:31:08;2.55;;;0.80;;
58360;SDS011;44164;44.954;10.068;2023-04-27T03:33:36;2.22;;;0.80;;
58360;SDS011;44164;44.954;10.068;2023-04-27T03:36:02;2.00;;;0.70;;
58360;SDS011;44164;44.954;10.068;2023-04-27T03:38:30;1.52;;;0.80;;
58360;SDS011;44164;44.954;10.068;2023-04-27T03:40:56;1.70;;;1.00;;
58360;SDS011;44164;44.954;10.068;2023-04-27T03:43:23;2.80;;;0.70;;
58360;SDS011;44164;44.954;10.068;2023-04-27T03:45:50;1.73;;;0.77;;
58360;SDS011;44164;44.954;10.068;2023-04-27T03:48:18;1.80;;;0.85;;
58360;SDS011;44164;44.954;10.068;2023-04-27T03:50:45;3.08;;;1.08;;
58360;SDS011;44164;44.954;10.068;2023-04-27T03:53:11;1.60;;;0.90;;
58360;SDS011;44164;44.954;10.068;2023-04-27T03:55:38;2.13;;;0.70;;
58360;SDS011;44164;44.954;10.068;2023-04-27T03:58:06;1.17;;;0.75;;
58360;SDS011;44164;44.954;10.068;2023-04-27T04:00:35;1.35;;;0.70;;
58360;SDS011;44164;44.954;10.068;2023-04-27T04:03:02;1.70;;;1.00;;
58360;SDS011;44164;44.954;10.068;2023-04-27T04:05:29;2.30;;;0.80;;
58360;SDS011;44164;44.954;10.068;2023-04-27T04:07:55;1.67;;;0.70;;
58360;SDS011;44164;44.954;10.068;2023-04-27T04:10:25;2.15;;;0.90;;
58360;SDS011;44164;44.954;10.068;2023-04-27T04:12:52;0.95;;;0.60;;
58360;SDS011;44164;44.954;10.068;2023-04-27T04:15:18;2.72;;;0.95;;
58360;SDS011;44164;44.954;10.068;2023-04-27T04:17:45;2.78;;;0.80;;
58360;SDS011;44164;44.954;10.068;2023-04-27T04:20:12;1.48;;;0.80;;
58360;SDS011;44164;44.954;10.068;2023-04-27T04:22:38;2.05;;;0.82;;
58360;SDS011;44164;44.954;10.068;2023-04-27T04:25:05;3.75;;;0.95;;
58360;SDS011;44164;44.954;10.068;2023-04-27T04:27:32;1.95;;;0.70;;
58360;SDS011;44164;44.954;10.068;2023-04-27T04:29:59;3.33;;;0.80;;
58360;SDS011;44164;44.954;10.068;2023-04-27T04:32:25;2.13;;;0.80;;
58360;SDS011;44164;44.954;10.068;2023-04-27T04:34:56;2.20;;;0.90;;
58360;SDS011;44164;44.954;10.068;2023-04-27T04:39:51;1.83;;;0.80;;
58360;SDS011;44164;44.954;10.068;2023-04-27T04:42:17;1.75;;;0.85;;
58360;SDS011;44164;44.954;10.068;2023-04-27T04:44:43;2.67;;;1.10;;
58360;SDS011;44164;44.954;10.068;2023-04-27T04:47:10;4.57;;;1.10;;
58360;SDS011;44164;44.954;10.068;2023-04-27T04:49:36;3.17;;;0.80;;
58360;SDS011;44164;44.954;10.068;2023-04-27T04:52:03;1.38;;;0.82;;
58360;SDS011;44164;44.954;10.068;2023-04-27T04:54:29;1.38;;;0.73;;
58360;SDS011;44164;44.954;10.068;2023-04-27T04:56:55;3.88;;;0.90;;
58360;SDS011;44164;44.954;10.068;2023-04-27T04:59:24;1.80;;;1.05;;
58360;SDS011;44164;44.954;10.068;2023-04-27T05:01:51;2.13;;;0.82;;
58360;SDS011;44164;44.954;10.068;2023-04-27T05:04:20;5.60;;;1.08;;
58360;SDS011;44164;44.954;10.068;2023-04-27T05:06:47;12.77;;;4.32;;
58360;SDS011;44164;44.954;10.068;2023-04-27T05:09:13;16.08;;;5.03;;
58360;SDS011;44164;44.954;10.068;2023-04-27T05:11:40;15.60;;;5.20;;
58360;SDS011;44164;44.954;10.068;2023-04-27T05:14:06;16.05;;;5.10;;
58360;SDS011;44164;44.954;10.068;2023-04-27T05:16:32;10.85;;;4.70;;
58360;SDS011;44164;44.954;10.068;2023-04-27T05:18:58;12.88;;;5.88;;
58360;SDS011;44164;44.954;10.068;2023-04-27T05:21:24;17.13;;;5.75;;
58360;SDS011;44164;44.954;10.068;2023-04-27T05:23:50;10.35;;;5.50;;
58360;SDS011;44164;44.954;10.068;2023-04-27T05:26:16;14.45;;;4.85;;
58360;SDS011;44164;44.954;10.068;2023-04-27T05:28:43;9.88;;;5.50;;
58360;SDS011;44164;44.954;10.068;2023-04-27T05:31:09;9.65;;;4.78;;
58360;SDS011;44164;44.954;10.068;2023-04-27T05:33:35;11.73;;;4.82;;
58360;SDS011;44164;44.954;10.068;2023-04-27T05:36:01;11.85;;;5.45;;
58360;SDS011;44164;44.954;10.068;2023-04-27T05:38:28;10.07;;;4.90;;
58360;SDS011;44164;44.954;10.068;2023-04-27T05:40:54;16.92;;;4.50;;
58360;SDS011;44164;44.954;10.068;2023-04-27T05:43:21;10.02;;;4.35;;
58360;SDS011;44164;44.954;10.068;2023-04-27T05:45:48;18.55;;;4.80;;
58360;SDS011;44164;44.954;10.068;2023-04-27T05:48:14;10.15;;;4.20;;
58360;SDS011;44164;44.954;10.068;2023-04-27T05:50:40;8.23;;;3.60;;
58360;SDS011;44164;44.954;10.068;2023-04-27T05:53:06;11.95;;;3.70;;
58360;SDS011;44164;44.954;10.068;2023-04-27T05:55:33;9.20;;;3.85;;
58360;SDS011;44164;44.954;10.068;2023-04-27T05:57:59;11.48;;;4.03;;
58360;SDS011;44164;44.954;10.068;2023-04-27T06:00:26;6.85;;;3.00;;
58360;SDS011;44164;44.954;10.068;2023-04-27T06:02:52;5.68;;;2.67;;
58360;SDS011;44164;44.954;10.068;2023-04-27T06:05:19;8.55;;;2.20;;
58360;SDS011;44164;44.954;10.068;2023-04-27T06:07:46;6.43;;;2.40;;
58360;SDS011;44164;44.954;10.068;2023-04-27T06:10:13;6.43;;;2.42;;
58360;SDS011;44164;44.954;10.068;2023-04-27T06:12:39;7.05;;;2.20;;
58360;SDS011;44164;44.954;10.068;2023-04-27T06:15:05;9.48;;;2.53;;
58360;SDS011;44164;44.954;10.068;2023-04-27T06:17:34;4.07;;;1.48;;
58360;SDS011;44164;44.954;10.068;2023-04-27T06:20:01;5.40;;;1.70;;
58360;SDS011;44164;44.954;10.068;2023-04-27T06:22:27;7.22;;;1.98;;
58360;SDS011;44164;44.954;10.068;2023-04-27T06:24:53;3.60;;;1.38;;
58360;SDS011;44164;44.954;10.068;2023-04-27T06:27:19;4.90;;;1.63;;
58360;SDS011;44164;44.954;10.068;2023-04-27T06:29:45;4.05;;;1.67;;
58360;SDS011;44164;44.954;10.068;2023-04-27T06:32:12;6.35;;;1.88;;
58360;SDS011;44164;44.954;10.068;2023-04-27T06:34:38;5.22;;;1.77;;
58360;SDS011;44164;44.954;10.068;2023-04-27T06:37:04;3.53;;;1.70;;
58360;SDS011;44164;44.954;10.068;2023-04-27T06:39:30;2.50;;;1.27;;
58360;SDS011;44164;44.954;10.068;2023-04-27T06:41:56;3.85;;;1.30;;
58360;SDS011;44164;44.954;10.068;2023-04-27T06:44:24;2.92;;;1.27;;
58360;SDS011;44164;44.954;10.068;2023-04-27T06:46:50;3.80;;;1.50;;
58360;SDS011;44164;44.954;10.068;2023-04-27T06:49:16;4.72;;;1.60;;
58360;SDS011;44164;44.954;10.068;2023-04-27T06:51:42;5.43;;;2.40;;
58360;SDS011;44164;44.954;10.068;2023-04-27T06:54:08;5.70;;;1.58;;
58360;SDS011;44164;44.954;10.068;2023-04-27T06:56:34;2.90;;;1.30;;
58360;SDS011;44164;44.954;10.068;2023-04-27T06:59:00;4.13;;;1.35;;
58360;SDS011;44164;44.954;10.068;2023-04-27T07:01:26;4.15;;;1.70;;
58360;SDS011;44164;44.954;10.068;2023-04-27T07:03:53;3.03;;;1.25;;
58360;SDS011;44164;44.954;10.068;2023-04-27T07:06:19;4.38;;;1.48;;
58360;SDS011;44164;44.954;10.068;2023-04-27T07:08:45;6.20;;;1.70;;
58360;SDS011;44164;44.954;10.068;2023-04-27T07:11:11;3.00;;;1.48;;
58360;SDS011;44164;44.954;10.068;2023-04-27T07:13:37;2.53;;;1.35;;
58360;SDS011;44164;44.954;10.068;2023-04-27T07:16:03;5.03;;;1.10;;
58360;SDS011;44164;44.954;10.068;2023-04-27T07:18:29;4.20;;;1.13;;
58360;SDS011;44164;44.954;10.068;2023-04-27T07:20:55;3.15;;;1.10;;
58360;SDS011;44164;44.954;10.068;2023-04-27T07:23:22;4.32;;;1.40;;
58360;SDS011;44164;44.954;10.068;2023-04-27T07:25:49;5.20;;;1.20;;
58360;SDS011;44164;44.954;10.068;2023-04-27T07:28:15;2.60;;;1.27;;
58360;SDS011;44164;44.954;10.068;2023-04-27T07:30:41;2.30;;;1.10;;
58360;SDS011;44164;44.954;10.068;2023-04-27T07:33:07;3.38;;;1.73;;
58360;SDS011;44164;44.954;10.068;2023-04-27T07:35:34;4.53;;;1.20;;
58360;SDS011;44164;44.954;10.068;2023-04-27T07:38:02;3.38;;;1.35;;
58360;SDS011;44164;44.954;10.068;2023-04-27T07:40:28;8.60;;;1.92;;
58360;SDS011;44164;44.954;10.068;2023-04-27T07:42:55;5.10;;;1.48;;
58360;SDS011;44164;44.954;10.068;2023-04-27T07:45:23;4.78;;;1.30;;
58360;SDS011;44164;44.954;10.068;2023-04-27T07:47:56;3.33;;;1.33;;
58360;SDS011;44164;44.954;10.068;2023-04-27T07:50:27;3.38;;;1.00;;
58360;SDS011;44164;44.954;10.068;2023-04-27T07:52:55;3.30;;;1.20;;
58360;SDS011;44164;44.954;10.068;2023-04-27T07:55:22;3.40;;;1.52;;
58360;SDS011;44164;44.954;10.068;2023-04-27T07:57:48;2.08;;;0.95;;
58360;SDS011;44164;44.954;10.068;2023-04-27T08:00:15;1.88;;;0.90;;
58360;SDS011;44164;44.954;10.068;2023-04-27T08:02:42;2.17;;;1.15;;
58360;SDS011;44164;44.954;10.068;2023-04-27T08:05:08;2.55;;;1.33;;
58360;SDS011;44164;44.954;10.068;2023-04-27T08:07:34;2.80;;;0.93;;
58360;SDS011;44164;44.954;10.068;2023-04-27T08:10:00;5.15;;;1.73;;
58360;SDS011;44164;44.954;10.068;2023-04-27T08:12:27;2.35;;;1.02;;
58360;SDS011;44164;44.954;10.068;2023-04-27T08:14:53;2.95;;;1.30;;
58360;SDS011;44164;44.954;10.068;2023-04-27T08:17:19;2.75;;;1.00;;
58360;SDS011;44164;44.954;10.068;2023-04-27T08:19:46;2.33;;;1.23;;
58360;SDS011;44164;44.954;10.068;2023-04-27T08:22:12;2.85;;;1.35;;
58360;SDS011;44164;44.954;10.068;2023-04-27T08:24:39;3.92;;;1.50;;
58360;SDS011;44164;44.954;10.068;2023-04-27T08:27:05;2.47;;;1.30;;
58360;SDS011;44164;44.954;10.068;2023-04-27T08:29:32;2.47;;;1.20;;
58360;SDS011;44164;44.954;10.068;2023-04-27T08:32:00;2.10;;;1.10;;
58360;SDS011;44164;44.954;10.068;2023-04-27T08:34:27;3.15;;;1.40;;
58360;SDS011;44164;44.954;10.068;2023-04-27T08:36:54;3.80;;;1.35;;
58360;SDS011;44164;44.954;10.068;2023-04-27T08:39:21;1.80;;;1.08;;
58360;SDS011;44164;44.954;10.068;2023-04-27T08:41:48;2.17;;;1.00;;
58360;SDS011;44164;44.954;10.068;2023-04-27T08:44:14;2.28;;;1.25;;
58360;SDS011;44164;44.954;10.068;2023-04-27T08:46:41;2.67;;;1.10;;
58360;SDS011;44164;44.954;10.068;2023-04-27T08:49:07;3.88;;;1.08;;
58360;SDS011;44164;44.954;10.068;2023-04-27T08:51:34;3.88;;;1.42;;
58360;SDS011;44164;44.954;10.068;2023-04-27T08:54:00;2.22;;;1.05;;
58360;SDS011;44164;44.954;10.068;2023-04-27T08:56:27;1.55;;;0.80;;
58360;SDS011;44164;44.954;10.068;2023-04-27T08:58:54;1.90;;;0.93;;
58360;SDS011;44164;44.954;10.068;2023-04-27T09:01:22;3.15;;;1.35;;
58360;SDS011;44164;44.954;10.068;2023-04-27T09:03:53;2.80;;;1.27;;
58360;SDS011;44164;44.954;10.068;2023-04-27T09:06:28;2.25;;;1.10;;
58360;SDS011;44164;44.954;10.068;2023-04-27T09:09:01;2.92;;;1.05;;
58360;SDS011;44164;44.954;10.068;2023-04-27T09:11:28;1.63;;;0.90;;
58360;SDS011;44164;44.954;10.068;2023-04-27T09:13:56;3.28;;;1.02;;
58360;SDS011;44164;44.954;10.068;2023-04-27T09:16:24;2.65;;;1.05;;
58360;SDS011;44164;44.954;10.068;2023-04-27T09:18:51;2.75;;;1.20;;
58360;SDS011;44164;44.954;10.068;2023-04-27T09:21:28;2.55;;;1.27;;
58360;SDS011;44164;44.954;10.068;2023-04-27T09:23:54;2.53;;;1.20;;
58360;SDS011;44164;44.954;10.068;2023-04-27T09:26:24;2.42;;;1.15;;
58360;SDS011;44164;44.954;10.068;2023-04-27T09:28:52;1.75;;;1.10;;
58360;SDS011;44164;44.954;10.068;2023-04-27T09:31:29;2.38;;;1.20;;
58360;SDS011;44164;44.954;10.068;2023-04-27T09:33:56;2.88;;;1.23;;
58360;SDS011;44164;44.954;10.068;2023-04-27T09:36:22;1.80;;;1.10;;
58360;SDS011;44164;44.954;10.068;2023-04-27T09:38:50;1.83;;;1.00;;
58360;SDS011;44164;44.954;10.068;2023-04-27T09:41:16;2.20;;;0.97;;
58360;SDS011;44164;44.954;10.068;2023-04-27T09:43:43;1.65;;;0.85;;
58360;SDS011;44164;44.954;10.068;2023-04-27T09:46:11;1.10;;;0.80;;
58360;SDS011;44164;44.954;10.068;2023-04-27T09:48:38;1.90;;;0.85;;
58360;SDS011;44164;44.954;10.068;2023-04-27T09:51:04;2.75;;;1.00;;
58360;SDS011;44164;44.954;10.068;2023-04-27T09:53:32;3.10;;;1.05;;
58360;SDS011;44164;44.954;10.068;2023-04-27T10:04:18;1.67;;;0.90;;
58360;SDS011;44164;44.954;10.068;2023-04-27T10:07:08;1.88;;;1.10;;
58360;SDS011;44164;44.954;10.068;2023-04-27T10:09:44;1.65;;;1.10;;
58360;SDS011;44164;44.954;10.068;2023-04-27T10:12:32;2.45;;;1.10;;
58360;SDS011;44164;44.954;10.068;2023-04-27T10:14:59;1.90;;;1.00;;
58360;SDS011;44164;44.954;10.068;2023-04-27T10:17:29;1.73;;;1.00;;
58360;SDS011;44164;44.954;10.068;2023-04-27T10:19:59;1.98;;;1.08;;
58360;SDS011;44164;44.954;10.068;2023-04-27T10:22:40;2.20;;;1.00;;
58360;SDS011;44164;44.954;10.068;2023-04-27T10:25:15;2.15;;;1.00;;
58360;SDS011;44164;44.954;10.068;2023-04-27T10:27:41;2.10;;;0.90;;
58360;SDS011;44164;44.954;10.068;2023-04-27T10:30:10;2.85;;;0.90;;
58360;SDS011;44164;44.954;10.068;2023-04-27T10:32:37;4.43;;;1.02;;
58360;SDS011;44164;44.954;10.068;2023-04-27T10:35:14;2.13;;;0.93;;
58360;SDS011;44164;44.954;10.068;2023-04-27T10:37:41;1.45;;;0.80;;
58360;SDS011;44164;44.954;10.068;2023-04-27T10:40:11;2.65;;;1.30;;
58360;SDS011;44164;44.954;10.068;2023-04-27T10:42:43;1.98;;;1.02;;
58360;SDS011;44164;44.954;10.068;2023-04-27T10:45:10;2.20;;;0.70;;
58360;SDS011;44164;44.954;10.068;2023-04-27T10:47:40;1.40;;;0.75;;
58360;SDS011;44164;44.954;10.068;2023-04-27T10:50:10;3.15;;;0.90;;
58360;SDS011;44164;44.954;10.068;2023-04-27T10:55:20;1.88;;;1.15;;
58360;SDS011;44164;44.954;10.068;2023-04-27T10:57:48;2.20;;;1.20;;
58360;SDS011;44164;44.954;10.068;2023-04-27T11:02:47;1.98;;;1.20;;
58360;SDS011;44164;44.954;10.068;2023-04-27T11:05:16;1.55;;;0.90;;
58360;SDS011;44164;44.954;10.068;2023-04-27T11:07:44;2.70;;;0.98;;
58360;SDS011;44164;44.954;10.068;2023-04-27T11:10:15;1.70;;;0.98;;
58360;SDS011;44164;44.954;10.068;2023-04-27T11:12:42;2.20;;;1.08;;
58360;SDS011;44164;44.954;10.068;2023-04-27T11:15:08;3.20;;;1.10;;
58360;SDS011;44164;44.954;10.068;2023-04-27T11:17:35;4.20;;;1.00;;
58360;SDS011;44164;44.954;10.068;2023-04-27T11:20:01;4.45;;;1.02;;
58360;SDS011;44164;44.954;10.068;2023-04-27T11:22:29;3.40;;;1.25;;
58360;SDS011;44164;44.954;10.068;2023-04-27T11:24:56;1.92;;;1.08;;
58360;SDS011;44164;44.954;10.068;2023-04-27T11:27:22;2.03;;;1.02;;
58360;SDS011;44164;44.954;10.068;2023-04-27T11:29:49;1.42;;;0.85;;
58360;SDS011;44164;44.954;10.068;2023-04-27T11:32:19;1.55;;;0.90;;
58360;SDS011;44164;44.954;10.068;2023-04-27T11:34:52;2.90;;;1.10;;
58360;SDS011;44164;44.954;10.068;2023-04-27T11:37:22;2.28;;;1.42;;
58360;SDS011;44164;44.954;10.068;2023-04-27T11:39:50;2.00;;;0.80;;
58360;SDS011;44164;44.954;10.068;2023-04-27T11:42:23;2.20;;;1.00;;
58360;SDS011;44164;44.954;10.068;2023-04-27T11:44:54;2.60;;;1.13;;
58360;SDS011;44164;44.954;10.068;2023-04-27T11:47:21;2.65;;;1.27;;
58360;SDS011;44164;44.954;10.068;2023-04-27T11:52:28;3.20;;;0.98;;
58360;SDS011;44164;44.954;10.068;2023-04-27T11:54:56;1.98;;;1.00;;
58360;SDS011;44164;44.954;10.068;2023-04-27T11:57:24;2.08;;;1.00;;
58360;SDS011;44164;44.954;10.068;2023-04-27T11:59:54;2.95;;;0.88;;
58360;SDS011;44164;44.954;10.068;2023-04-27T12:02:22;2.97;;;1.30;;
58360;SDS011;44164;44.954;10.068;2023-04-27T12:04:48;4.15;;;1.27;;
58360;SDS011;44164;44.954;10.068;2023-04-27T12:07:15;2.70;;;0.95;;
58360;SDS011;44164;44.954;10.068;2023-04-27T12:09:42;3.08;;;1.15;;
58360;SDS011;44164;44.954;10.068;2023-04-27T12:12:09;3.53;;;1.50;;
58360;SDS011;44164;44.954;10.068;2023-04-27T12:14:35;6.93;;;1.00;;
58360;SDS011;44164;44.954;10.068;2023-04-27T12:17:02;2.45;;;1.23;;
58360;SDS011;44164;44.954;10.068;2023-04-27T12:19:28;1.95;;;1.00;;
58360;SDS011;44164;44.954;10.068;2023-04-27T12:21:55;2.25;;;1.10;;
58360;SDS011;44164;44.954;10.068;2023-04-27T12:24:22;5.43;;;1.30;;
58360;SDS011;44164;44.954;10.068;2023-04-27T12:26:49;1.85;;;1.02;;
58360;SDS011;44164;44.954;10.068;2023-04-27T12:29:16;2.00;;;0.83;;
58360;SDS011;44164;44.954;10.068;2023-04-27T12:31:42;5.55;;;1.65;;
58360;SDS011;44164;44.954;10.068;2023-04-27T12:34:09;2.60;;;1.30;;
58360;SDS011;44164;44.954;10.068;2023-04-27T12:36:35;3.63;;;1.17;;
58360;SDS011;44164;44.954;10.068;2023-04-27T12:39:14;3.33;;;1.25;;
58360;SDS011;44164;44.954;10.068;2023-04-27T12:41:44;2.95;;;1.17;;
58360;SDS011;44164;44.954;10.068;2023-04-27T12:44:15;3.60;;;1.25;;
58360;SDS011;44164;44.954;10.068;2023-04-27T12:46:42;2.95;;;0.98;;
58360;SDS011;44164;44.954;10.068;2023-04-27T12:49:09;5.10;;;1.15;;
58360;SDS011;44164;44.954;10.068;2023-04-27T12:51:36;3.40;;;1.17;;
58360;SDS011;44164;44.954;10.068;2023-04-27T12:54:03;3.90;;;1.10;;
58360;SDS011;44164;44.954;10.068;2023-04-27T12:56:30;3.87;;;1.20;;
58360;SDS011;44164;44.954;10.068;2023-04-27T12:58:56;3.58;;;1.05;;
58360;SDS011;44164;44.954;10.068;2023-04-27T13:01:22;2.00;;;0.98;;
58360;SDS011;44164;44.954;10.068;2023-04-27T13:03:52;3.60;;;0.98;;
58360;SDS011;44164;44.954;10.068;2023-04-27T13:06:19;4.45;;;1.02;;
58360;SDS011;44164;44.954;10.068;2023-04-27T13:08:48;4.00;;;0.82;;
58360;SDS011;44164;44.954;10.068;2023-04-27T13:11:14;5.63;;;1.25;;
58360;SDS011;44164;44.954;10.068;2023-04-27T13:13:41;5.10;;;0.93;;
58360;SDS011;44164;44.954;10.068;2023-04-27T13:16:07;5.22;;;1.20;;
58360;SDS011;44164;44.954;10.068;2023-04-27T13:18:33;2.92;;;1.05;;
58360;SDS011;44164;44.954;10.068;2023-04-27T13:21:01;2.08;;;1.17;;
58360;SDS011;44164;44.954;10.068;2023-04-27T13:23:27;3.38;;;1.52;;
58360;SDS011;44164;44.954;10.068;2023-04-27T13:25:54;2.83;;;0.80;;
58360;SDS011;44164;44.954;10.068;2023-04-27T13:28:20;2.58;;;1.00;;
58360;SDS011;44164;44.954;10.068;2023-04-27T13:30:46;3.28;;;1.30;;
58360;SDS011;44164;44.954;10.068;2023-04-27T13:33:13;1.70;;;0.70;;
58360;SDS011;44164;44.954;10.068;2023-04-27T13:35:40;1.95;;;1.02;;
58360;SDS011;44164;44.954;10.068;2023-04-27T13:38:07;2.42;;;1.00;;
58360;SDS011;44164;44.954;10.068;2023-04-27T13:40:33;2.30;;;0.95;;
58360;SDS011;44164;44.954;10.068;2023-04-27T13:42:59;3.03;;;1.10;;
58360;SDS011;44164;44.954;10.068;2023-04-27T13:45:25;1.77;;;0.80;;
58360;SDS011;44164;44.954;10.068;2023-04-27T13:47:51;2.22;;;1.00;;
58360;SDS011;44164;44.954;10.068;2023-04-27T13:50:17;4.35;;;1.23;;
58360;SDS011;44164;44.954;10.068;2023-04-27T13:52:43;2.80;;;1.10;;
58360;SDS011;44164;44.954;10.068;2023-04-27T13:55:09;4.45;;;1.30;;
58360;SDS011;44164;44.954;10.068;2023-04-27T13:57:36;4.50;;;0.90;;
58360;SDS011;44164;44.954;10.068;2023-04-27T14:00:03;3.28;;;1.13;;
58360;SDS011;44164;44.954;10.068;2023-04-27T14:02:34;1.52;;;0.90;;
58360;SDS011;44164;44.954;10.068;2023-04-27T14:05:00;3.08;;;1.10;;
58360;SDS011;44164;44.954;10.068;2023-04-27T14:07:26;2.83;;;0.90;;
58360;SDS011;44164;44.954;10.068;2023-04-27T14:09:52;3.75;;;1.20;;
58360;SDS011;44164;44.954;10.068;2023-04-27T14:12:18;2.60;;;0.80;;
58360;SDS011;44164;44.954;10.068;2023-04-27T14:14:45;1.42;;;0.90;;
58360;SDS011;44164;44.954;10.068;2023-04-27T14:17:11;2.17;;;0.88;;
58360;SDS011;44164;44.954;10.068;2023-04-27T14:19:37;2.40;;;0.73;;
58360;SDS011;44164;44.954;10.068;2023-04-27T14:22:03;2.65;;;0.95;;
58360;SDS011;44164;44.954;10.068;2023-04-27T14:24:31;1.70;;;1.00;;
58360;SDS011;44164;44.954;10.068;2023-04-27T14:26:57;6.63;;;1.25;;
58360;SDS011;44164;44.954;10.068;2023-04-27T14:29:23;1.88;;;1.00;;
58360;SDS011;44164;44.954;10.068;2023-04-27T14:31:50;2.30;;;1.15;;
58360;SDS011;44164;44.954;10.068;2023-04-27T14:34:16;2.70;;;1.10;;
58360;SDS011;44164;44.954;10.068;2023-04-27T14:36:42;3.30;;;0.88;;
58360;SDS011;44164;44.954;10.068;2023-04-27T14:39:08;1.85;;;0.93;;
58360;SDS011;44164;44.954;10.068;2023-04-27T14:41:35;1.20;;;0.80;;
58360;SDS011;44164;44.954;10.068;2023-04-27T14:44:02;1.98;;;0.90;;
58360;SDS011;44164;44.954;10.068;2023-04-27T14:46:32;1.17;;;0.60;;
58360;SDS011;44164;44.954;10.068;2023-04-27T14:48:59;1.52;;;0.80;;
58360;SDS011;44164;44.954;10.068;2023-04-27T14:51:26;1.38;;;0.80;;